Latest Weather Observations for Brisbane

IDQ60901

Issued at 9:31 pm EST Thursday 13 December 2018 (issued every 10 minutes, with the page automatically refreshed every 10 minutes)

About weather observations | Map of Brisbane area stations | Latest observations for Brisbane area | Other Formats
Station Details ID: 040913 Name: BRISBANE Lat: -27.48 Lon: 153.04 Height: 8.13 m
Data from the previous 72 hours. | See also: Recent months at Brisbane
Date/Time
EST
Temp
°C
App
Temp
°C
Dew
Point
°C
Rel
Hum
%
Delta-T
°C
Wind Press
QNH
hPa
Press
MSL
hPa
Rain since
9am
mm
Dir  Spd
km/h
Gust
km/h
Spd
kts
Gust
kts
13/09:30pm 25.2 27.3 20.2 74 3.3 N 9 20 5 11 1006.9 1006.8 0.0
13/09:00pm 25.1 27.5 20.1 74 3.3 N 7 15 4 8 1006.8 1006.7 0.0
13/08:30pm 25.3 27.7 20.1 73 3.4 NNE 7 19 4 10 1006.4 1006.3 0.0
13/08:00pm 25.4 27.8 20.0 72 3.5 N 7 20 4 11 1006.6 1006.5 0.0
13/07:30pm 25.3 27.3 19.9 72 3.5 NNE 9 20 5 11 1006.4 1006.3 0.0
13/07:00pm 25.4 27.7 19.8 71 3.6 N 7 19 4 10 1006.9 1006.8 0.0
13/06:30pm 25.4 27.3 19.8 71 3.6 NNE 9 17 5 9 1006.3 1006.2 0.0
13/06:00pm 25.4 26.8 19.5 70 3.8 NNE 11 24 6 13 1005.4 1005.3 0.0
13/05:30pm 25.6 26.5 19.3 68 4.0 NNE 13 30 7 16 1004.9 1004.8 0.0
13/05:00pm 26.1 27.0 19.2 65 4.4 NNE 13 24 7 13 1004.4 1004.3 0.0
13/04:30pm 26.8 26.9 19.2 63 4.9 NNE 17 30 9 16 1004.4 1004.3 0.0
13/04:00pm 26.9 26.9 19.0 62 5.1 NE 17 30 9 16 1004.2 1004.1 0.0
13/03:30pm 27.3 27.1 18.6 59 5.6 NE 17 33 9 18 1004.4 1004.3 0.0
13/03:00pm 27.3 27.7 19.1 61 5.3 NNE 15 28 8 15 1004.8 1004.7 0.0
13/02:30pm 27.1 26.6 18.7 60 5.4 NNE 19 33 10 18 1005.5 1005.4 0.0
13/02:00pm 28.5 29.0 19.2 57 6.0 NE 15 32 8 17 1006.1 1006.0 0.0
13/01:30pm 29.0 29.6 18.7 53 6.6 NE 13 28 7 15 1006.2 1006.1 0.0
13/01:00pm 29.3 30.2 19.3 55 6.5 NE 13 26 7 14 1006.8 1006.7 0.0
13/12:30pm 28.1 28.8 18.8 57 6.0 NNE 13 24 7 13 1007.4 1007.4 0.0
13/12:00pm 29.4 30.1 18.8 53 6.9 NE 13 24 7 13 1007.9 1007.9 0.0
13/11:30am 29.1 30.4 18.5 52 6.8 NE 9 20 5 11 1008.4 1008.4 0.0
13/11:00am 28.2 28.3 16.5 49 7.3 NNE 11 20 6 11 1008.8 1008.8 0.0
13/10:30am 28.3 29.1 17.2 51 7.0 N 9 19 5 10 1009.0 1009.0 0.0
13/10:00am 28.0 28.9 16.6 50 7.1 N 7 17 4 9 1009.6 1009.6 0.0
13/09:30am 27.3 27.2 15.0 47 7.4 NNE 9 17 5 9 1009.5 1009.5 0.0
13/09:00am 26.9 27.6 15.6 50 6.9 NNE 6 11 3 6 1010.1 1010.1 0.0
13/08:30am 26.6 26.9 15.9 51 6.6 NNW 9 15 5 8 1010.1 1010.1 0.0
13/08:00am 26.4 27.1 16.1 53 6.3 NNE 7 15 4 8 1010.3 1010.3 0.0
13/07:30am 25.5 26.4 16.6 58 5.5 NNW 7 17 4 9 1010.1 1010.1 0.0
13/07:00am 25.5 27.3 17.4 61 5.1 N 4 11 2 6 1010.3 1010.3 0.0
13/06:30am 24.9 27.0 18.1 66 4.3 NE 4 7 2 4 1010.1 1010.1 0.0
13/06:00am 22.6 25.2 17.5 73 3.2 CALM 0 4 0 2 1010.0 1010.0 0.0
13/05:30am 22.4 24.4 17.8 75 2.9 ENE 4 9 2 5 1009.6 1009.6 0.0
13/05:00am 21.9 24.4 17.3 75 2.8 CALM 0 2 0 1 1009.6 1009.6 0.0
13/04:30am 22.0 24.2 17.4 75 2.8 NNW 2 4 1 2 1009.8 1009.8 0.0
13/04:00am 21.9 24.4 17.3 75 2.8 CALM 0 4 0 2 1009.6 1009.6 0.0
13/03:30am 22.1 24.3 17.5 75 2.8 NW 2 7 1 4 1009.8 1009.8 0.0
13/03:00am 22.1 24.2 17.2 74 3.0 NNW 2 6 1 3 1009.6 1009.6 0.0
13/02:30am 22.3 24.1 17.4 74 3.0 NNW 4 7 2 4 1009.9 1009.9 0.0
13/02:00am 22.4 24.6 17.5 74 3.0 NNW 2 6 1 3 1010.3 1010.3 0.0
13/01:30am 22.6 24.1 17.7 74 3.0 NNW 6 13 3 7 1010.4 1010.4 0.0
13/01:00am 22.8 24.3 17.5 72 3.3 NNW 6 9 3 5 1011.0 1011.0 0.0
13/12:30am 22.9 24.4 17.6 72 3.3 NNW 6 13 3 7 1010.9 1010.9 0.0
13/12:00am 23.2 24.6 17.4 70 3.6 N 6 13 3 7 1011.3 1011.3 0.0
 
Date/Time
EST
Temp
°C
App
Temp
°C
Dew
Point
°C
Rel
Hum
%
Delta-T
°C
Wind Press
QNH
hPa
Press
MSL
hPa
Rain since
9am
mm
Dir  Spd
km/h
Gust
km/h
Spd
kts
Gust
kts
12/11:30pm 23.2 25.2 17.9 72 3.3 NNE 4 7 2 4 1011.9 1011.9 0.0
12/11:00pm 23.4 25.0 17.8 71 3.5 NNE 6 11 3 6 1011.9 1011.9 0.0
12/10:30pm 23.4 25.0 17.8 71 3.5 NNE 6 15 3 8 1012.3 1012.3 0.0
12/10:00pm 23.4 24.9 17.6 70 3.6 NNE 6 11 3 6 1012.7 1012.7 0.0
12/09:30pm 23.7 25.1 17.7 69 3.7 NNE 7 17 4 9 1012.7 1012.7 0.0
12/09:00pm 24.0 25.1 18.0 69 3.8 NE 9 15 5 8 1012.8 1012.8 0.0
12/08:30pm 24.1 25.4 18.5 71 3.5 ENE 9 17 5 9 1012.7 1012.7 0.0
12/08:00pm 24.2 25.5 18.4 70 3.7 ENE 9 13 5 7 1012.6 1012.6 0.0
12/07:30pm 24.3 26.0 18.5 70 3.7 ENE 7 13 4 7 1012.8 1012.8 0.0
12/07:00pm 24.2 25.9 18.4 70 3.7 ENE 7 13 4 7 1012.5 1012.5 0.0
12/06:30pm 24.4 25.5 18.1 68 4.0 NE 9 17 5 9 1011.9 1011.9 0.0
12/06:00pm 24.7 25.9 18.2 67 4.1 ENE 9 19 5 10 1011.9 1011.9 0.0
12/05:30pm 25.2 25.0 16.6 59 5.3 ENE 13 20 7 11 1011.4 1011.4 0.0
12/05:00pm 26.1 25.5 16.6 55 5.9 ENE 15 22 8 12 1011.2 1011.2 0.0
12/04:30pm 26.6 26.2 16.2 52 6.4 ENE 13 20 7 11 1010.9 1010.9 0.0
12/04:00pm 27.0 26.6 16.3 52 6.6 ENE 13 22 7 12 1010.7 1010.7 0.0
12/03:30pm 27.4 26.8 15.7 48 7.2 ENE 13 20 7 11 1010.8 1010.8 0.0
12/03:00pm 27.7 27.0 15.4 47 7.5 NE 13 24 7 13 1010.9 1010.9 0.0
12/02:30pm 28.6 27.9 15.5 45 8.0 ENE 13 20 7 11 1011.3 1011.3 0.0
12/02:00pm 28.6 28.3 15.5 45 8.0 NE 11 24 6 13 1011.9 1011.9 0.0
12/01:30pm 28.2 27.7 14.8 44 8.1 ENE 11 22 6 12 1012.3 1012.3 0.0
12/01:00pm 28.9 28.6 15.4 44 8.3 ENE 11 20 6 11 1012.7 1012.7 0.0
12/12:30pm 28.6 28.2 15.2 44 8.2 ENE 11 22 6 12 1013.0 1013.0 0.0
12/12:00pm 28.7 28.6 15.9 45 7.9 NE 11 32 6 17 1013.1 1013.1 0.0
12/11:30am 28.5 28.1 15.1 44 8.2 NE 11 22 6 12 1013.5 1013.5 0.0
12/11:00am 27.9 27.4 14.9 45 7.9 ENE 11 20 6 11 1013.9 1013.9 0.0
12/10:30am 28.2 28.4 15.8 47 7.6 NNE 9 17 5 9 1014.3 1014.3 0.0
12/10:00am 28.0 28.7 16.0 48 7.4 NE 7 17 4 9 1014.5 1014.5 0.0
12/09:30am 27.5 27.6 15.5 48 7.3 NE 9 15 5 8 1014.6 1014.6 0.0
12/09:00am 27.2 28.1 16.5 52 6.6 NE 7 15 4 8 1014.7 1014.7 0.0
12/08:30am 26.6 27.5 16.5 54 6.2 NE 7 15 4 8 1014.9 1014.9 0.0
12/08:00am 25.1 26.2 16.5 59 5.3 E 6 13 3 7 1014.6 1014.6 0.0
12/07:30am 24.4 25.5 16.6 61 4.8 E 6 11 3 6 1014.5 1014.5 0.0
12/07:00am 25.3 27.4 18.0 64 4.6 ESE 4 9 2 5 1014.4 1014.4 0.0
12/06:30am 23.3 25.4 17.3 69 3.7 SE 2 7 1 4 1014.2 1014.2 0.0
12/06:00am 21.8 24.7 18.2 80 2.2 CALM 0 2 0 1 1014.4 1014.4 0.0
12/05:30am 20.4 23.0 18.5 89 1.2 SSW 2 4 1 2 1014.0 1014.0 0.0
12/05:00am 19.2 21.7 17.3 89 1.2 CALM 0 0 0 0 1013.8 1013.8 0.0
12/04:30am 19.5 22.1 17.5 88 1.2 CALM 0 0 0 0 1013.6 1013.6 0.0
12/04:00am 19.6 22.2 17.4 87 1.3 CALM 0 0 0 0 1013.7 1013.7 0.0
12/03:30am 20.0 22.7 17.8 87 1.4 CALM 0 0 0 0 1013.4 1013.4 0.0
12/03:00am 20.0 22.6 17.6 86 1.5 CALM 0 0 0 0 1014.0 1014.0 0.0
12/02:30am 20.7 23.3 18.3 86 1.5 SSE 2 6 1 3 1014.0 1014.0 0.0
12/02:00am 20.2 22.8 17.6 85 1.6 CALM 0 0 0 0 1014.2 1014.2 0.0
12/01:30am 20.8 23.1 17.8 83 1.9 SSE 2 4 1 2 1014.3 1014.3 0.0
12/01:00am 21.2 24.0 18.0 82 2.0 CALM 0 2 0 1 1014.7 1014.7 0.0
12/12:30am 21.0 23.7 17.8 82 2.0 CALM 0 4 0 2 1015.1 1015.1 0.0
12/12:00am 21.6 24.4 18.0 80 2.2 CALM 0 6 0 3 1015.6 1015.6 0.0
 
Date/Time
EST
Temp
°C
App
Temp
°C
Dew
Point
°C
Rel
Hum
%
Delta-T
°C
Wind Press
QNH
hPa
Press
MSL
hPa
Rain since
9am
mm
Dir  Spd
km/h
Gust
km/h
Spd
kts
Gust
kts
11/11:30pm 21.9 24.4 18.1 79 2.4 E 2 6 1 3 1015.9 1015.9 0.0
11/11:00pm 22.3 24.9 18.5 79 2.4 E 2 6 1 3 1016.2 1016.2 0.0
11/10:30pm 22.7 25.0 18.5 77 2.6 E 4 6 2 3 1016.5 1016.5 0.0
11/10:00pm 23.0 25.4 18.7 77 2.7 ENE 4 6 2 3 1016.9 1016.9 0.0
11/09:30pm 23.1 25.0 18.6 76 2.8 E 6 9 3 5 1016.8 1016.8 0.0
11/09:00pm 23.5 25.5 18.8 75 3.0 E 6 9 3 5 1016.6 1016.6 0.0
11/08:30pm 23.6 25.4 18.7 74 3.1 ENE 7 13 4 7 1016.4 1016.4 0.0
11/08:00pm 23.8 25.2 18.7 73 3.2 ENE 9 15 5 8 1016.1 1016.1 0.0
11/07:30pm 24.0 25.9 18.9 73 3.2 E 7 15 4 8 1015.6 1015.6 0.0
11/07:00pm 24.2 25.1 18.4 70 3.7 E 11 17 6 9 1015.0 1015.0 0.0
11/06:30pm 24.7 24.9 17.7 65 4.4 E 13 20 7 11 1014.7 1014.7 0.0
11/06:00pm 25.4 25.6 17.6 62 4.9 E 13 19 7 10 1014.6 1014.6 0.0
11/05:30pm 26.1 26.0 16.9 57 5.7 E 13 22 7 12 1014.3 1014.3 0.0
11/05:00pm 26.8 27.2 17.3 56 5.9 E 11 19 6 10 1013.9 1013.9 0.0
11/04:30pm 27.4 28.5 18.1 57 5.9 ENE 9 19 5 10 1013.6 1013.6 0.0
11/04:00pm 27.8 28.1 17.0 51 6.8 ENE 11 19 6 10 1013.4 1013.4 0.0
11/03:30pm 28.6 29.1 17.5 51 7.0 ENE 11 19 6 10 1013.6 1013.6 0.0
11/03:00pm 29.1 30.0 17.6 50 7.3 NE 9 20 5 11 1014.0 1014.0 0.0
11/02:30pm 28.5 28.2 16.4 48 7.5 ENE 13 22 7 12 1014.4 1014.4 0.0
11/02:00pm 28.6 28.1 16.8 48 7.4 ENE 15 26 8 14 1014.7 1014.7 0.0
11/01:30pm 29.1 28.9 16.6 46 7.8 ENE 13 19 7 10 1014.8 1014.8 0.0
11/01:00pm 28.6 28.7 16.5 48 7.5 NE 11 22 6 12 1015.1 1015.1 0.0
11/12:30pm 29.1 29.1 16.3 46 8.0 ENE 11 20 6 11 1015.7 1015.7 0.0
11/12:00pm 29.2 29.5 16.0 44 8.2 NE 9 22 5 12 1015.8 1015.8 0.0
11/11:30am 29.3 29.6 15.1 42 8.7 NNE 7 17 4 9 1015.9 1015.9 0.0
11/11:00am 28.8 28.6 14.6 42 8.6 NNE 9 20 5 11 1015.9 1015.9 0.0
11/10:30am 29.0 28.8 14.8 42 8.6 ENE 9 17 5 9 1016.0 1016.0 0.0
11/10:00am 28.7 29.3 15.9 45 7.9 NE 7 17 4 9 1016.3 1016.3 0.0
11/09:30am 28.0 29.8 17.5 52 6.6 S 4 9 2 5 1016.5 1016.5 0.0
11/09:00am 25.9 27.4 16.7 57 5.7 NE 4 7 2 4 1016.5 1016.5 0.0
11/08:30am 25.9 26.7 15.9 54 6.1 E 6 11 3 6 1016.3 1016.3 0.0
11/08:00am 25.4 27.2 17.3 61 5.0 NE 4 9 2 5 1016.2 1016.2 0.0
11/07:30am 25.5 27.4 17.7 62 4.9 ENE 4 7 2 4 1016.2 1016.2 0.0
11/07:00am 23.8 26.2 18.0 70 3.6 W 2 4 1 2 1015.8 1015.8 0.0
11/06:30am 23.4 26.0 18.3 73 3.2 S 2 6 1 3 1015.8 1015.8 0.0
11/06:00am 21.9 23.5 17.9 78 2.5 SSW 6 11 3 6 1015.6 1015.6 0.0
11/05:30am 20.9 23.1 18.3 85 1.6 SW 4 7 2 4 1015.3 1015.3 0.0
11/05:00am 20.3 22.7 17.9 86 1.5 SSW 2 6 1 3 1014.9 1014.9 0.0
11/04:30am 20.6 22.7 18.0 85 1.6 WSW 4 6 2 3 1014.7 1014.7 0.0
11/04:00am 21.1 23.7 18.5 85 1.6 WSW 2 6 1 3 1014.7 1014.7 0.0
11/03:30am 20.6 23.5 18.2 86 1.5 CALM 0 0 0 0 1014.5 1014.5 0.0
11/03:00am 20.5 23.4 18.3 87 1.4 CALM 0 2 0 1 1014.6 1014.6 0.0
11/02:30am 20.2 23.0 18.0 87 1.4 CALM 0 0 0 0 1014.5 1014.5 0.0
11/02:00am 20.0 22.6 17.6 86 1.5 CALM 0 0 0 0 1014.8 1014.8 0.0
11/01:30am 20.4 23.1 17.8 85 1.6 CALM 0 2 0 1 1014.8 1014.8 0.0
11/01:00am 20.4 22.7 17.8 85 1.6 SSE 2 4 1 2 1015.3 1015.3 0.0
11/12:30am 20.4 23.0 17.6 84 1.7 CALM 0 0 0 0 1015.3 1015.3 0.0
11/12:00am 20.7 23.3 17.5 82 2.0 CALM 0 0 0 0 1015.6 1015.6 0.0
 
Date/Time
EST
Temp
°C
App
Temp
°C
Dew
Point
°C
Rel
Hum
%
Delta-T
°C
Wind Press
QNH
hPa
Press
MSL
hPa
Rain since
9am
mm
Dir  Spd
km/h
Gust
km/h
Spd
kts
Gust
kts
10/11:30pm 21.0 23.5 17.2 79 2.3 CALM 0 2 0 1 1015.9 1015.9 0.0
10/11:00pm 21.8 24.3 17.2 75 2.8 CALM 0 0 0 0 1016.1 1016.1 0.0
10/10:30pm 22.7 25.0 17.8 74 3.0 NE 2 4 1 2 1015.8 1015.8 0.0
10/10:00pm 22.9 25.2 17.8 73 3.2 NE 2 7 1 4 1016.0 1016.0 0.0

Latest Capital City Observations: Canberra | Sydney | Melbourne | Brisbane | Adelaide | Perth | Hobart | Darwin

Other Formats:

Comma delimited format used in spreadsheet applications
http://www.bom.gov.au/fwo/IDQ60901/IDQ60901.94576.axf

JavaScript Object Notation format (JSON) in row-major order
http://www.bom.gov.au/fwo/IDQ60901/IDQ60901.94576.json